sensor_id;sensor_type;location;lat;lon;timestamp;P1;durP1;ratioP1;P2;durP2;ratioP2
54919;SDS011;63804;53.120;8.764;2023-12-04T00:00:21;23.05;;;13.40;;
54919;SDS011;63804;53.120;8.764;2023-12-04T00:02:49;23.50;;;13.30;;
54919;SDS011;63804;53.120;8.764;2023-12-04T00:05:17;22.60;;;12.98;;
54919;SDS011;63804;53.120;8.764;2023-12-04T00:07:45;20.65;;;12.55;;
54919;SDS011;63804;53.120;8.764;2023-12-04T00:10:13;23.55;;;13.40;;
54919;SDS011;63804;53.120;8.764;2023-12-04T00:12:41;24.17;;;13.32;;
54919;SDS011;63804;53.120;8.764;2023-12-04T00:15:09;23.58;;;13.35;;
54919;SDS011;63804;53.120;8.764;2023-12-04T00:17:37;23.40;;;13.50;;
54919;SDS011;63804;53.120;8.764;2023-12-04T00:20:08;23.55;;;13.23;;
54919;SDS011;63804;53.120;8.764;2023-12-04T00:22:37;23.88;;;13.57;;
54919;SDS011;63804;53.120;8.764;2023-12-04T00:25:06;20.42;;;12.25;;
54919;SDS011;63804;53.120;8.764;2023-12-04T00:27:34;23.95;;;13.68;;
54919;SDS011;63804;53.120;8.764;2023-12-04T00:30:02;22.55;;;12.88;;
54919;SDS011;63804;53.120;8.764;2023-12-04T00:32:31;23.02;;;13.80;;
54919;SDS011;63804;53.120;8.764;2023-12-04T00:34:59;23.65;;;13.07;;
54919;SDS011;63804;53.120;8.764;2023-12-04T00:37:27;25.10;;;13.75;;
54919;SDS011;63804;53.120;8.764;2023-12-04T00:39:55;22.13;;;13.02;;
54919;SDS011;63804;53.120;8.764;2023-12-04T00:42:23;24.33;;;13.63;;
54919;SDS011;63804;53.120;8.764;2023-12-04T00:44:51;23.65;;;13.88;;
54919;SDS011;63804;53.120;8.764;2023-12-04T00:47:19;22.45;;;13.23;;
54919;SDS011;63804;53.120;8.764;2023-12-04T00:49:47;22.98;;;13.68;;
54919;SDS011;63804;53.120;8.764;2023-12-04T00:52:14;22.73;;;13.38;;
54919;SDS011;63804;53.120;8.764;2023-12-04T00:54:42;22.23;;;13.30;;
54919;SDS011;63804;53.120;8.764;2023-12-04T00:57:10;23.38;;;13.63;;
54919;SDS011;63804;53.120;8.764;2023-12-04T00:59:38;24.60;;;13.98;;
54919;SDS011;63804;53.120;8.764;2023-12-04T01:02:06;23.67;;;13.50;;
54919;SDS011;63804;53.120;8.764;2023-12-04T01:04:34;23.45;;;13.73;;
54919;SDS011;63804;53.120;8.764;2023-12-04T01:07:02;23.02;;;13.38;;
54919;SDS011;63804;53.120;8.764;2023-12-04T01:09:30;24.85;;;13.95;;
54919;SDS011;63804;53.120;8.764;2023-12-04T01:11:58;23.10;;;14.02;;
54919;SDS011;63804;53.120;8.764;2023-12-04T01:14:25;23.88;;;13.70;;
54919;SDS011;63804;53.120;8.764;2023-12-04T01:16:54;23.15;;;13.60;;
54919;SDS011;63804;53.120;8.764;2023-12-04T01:19:21;24.15;;;13.88;;
54919;SDS011;63804;53.120;8.764;2023-12-04T01:21:49;26.65;;;14.80;;
54919;SDS011;63804;53.120;8.764;2023-12-04T01:24:17;24.65;;;13.50;;
54919;SDS011;63804;53.120;8.764;2023-12-04T01:26:45;24.25;;;14.73;;
54919;SDS011;63804;53.120;8.764;2023-12-04T01:29:13;23.05;;;13.25;;
54919;SDS011;63804;53.120;8.764;2023-12-04T01:31:40;23.80;;;13.27;;
54919;SDS011;63804;53.120;8.764;2023-12-04T01:34:08;23.85;;;13.60;;
54919;SDS011;63804;53.120;8.764;2023-12-04T01:36:39;22.73;;;13.13;;
54919;SDS011;63804;53.120;8.764;2023-12-04T01:39:08;24.30;;;13.25;;
54919;SDS011;63804;53.120;8.764;2023-12-04T01:41:36;23.05;;;13.20;;
54919;SDS011;63804;53.120;8.764;2023-12-04T01:44:03;22.48;;;13.05;;
54919;SDS011;63804;53.120;8.764;2023-12-04T01:46:31;21.90;;;13.07;;
54919;SDS011;63804;53.120;8.764;2023-12-04T01:48:59;24.05;;;12.95;;
54919;SDS011;63804;53.120;8.764;2023-12-04T01:51:30;22.27;;;12.77;;
54919;SDS011;63804;53.120;8.764;2023-12-04T01:53:59;24.65;;;13.48;;
54919;SDS011;63804;53.120;8.764;2023-12-04T01:56:30;23.52;;;13.45;;
54919;SDS011;63804;53.120;8.764;2023-12-04T01:58:59;24.70;;;13.45;;
54919;SDS011;63804;53.120;8.764;2023-12-04T02:01:27;23.33;;;12.63;;
54919;SDS011;63804;53.120;8.764;2023-12-04T02:03:56;22.13;;;12.95;;
54919;SDS011;63804;53.120;8.764;2023-12-04T02:06:25;23.80;;;12.95;;
54919;SDS011;63804;53.120;8.764;2023-12-04T02:08:53;23.98;;;13.02;;
54919;SDS011;63804;53.120;8.764;2023-12-04T02:11:21;22.50;;;12.50;;
54919;SDS011;63804;53.120;8.764;2023-12-04T02:13:48;24.48;;;13.35;;
54919;SDS011;63804;53.120;8.764;2023-12-04T02:16:16;21.95;;;12.48;;
54919;SDS011;63804;53.120;8.764;2023-12-04T02:18:46;22.00;;;12.02;;
54919;SDS011;63804;53.120;8.764;2023-12-04T02:21:14;20.88;;;12.27;;
54919;SDS011;63804;53.120;8.764;2023-12-04T02:23:42;22.52;;;13.23;;
54919;SDS011;63804;53.120;8.764;2023-12-04T02:26:12;21.15;;;12.05;;
54919;SDS011;63804;53.120;8.764;2023-12-04T02:28:43;22.10;;;12.38;;
54919;SDS011;63804;53.120;8.764;2023-12-04T02:31:18;24.52;;;12.57;;
54919;SDS011;63804;53.120;8.764;2023-12-04T02:33:47;19.08;;;11.23;;
54919;SDS011;63804;53.120;8.764;2023-12-04T02:36:19;23.75;;;12.73;;
54919;SDS011;63804;53.120;8.764;2023-12-04T02:38:48;20.45;;;11.55;;
54919;SDS011;63804;53.120;8.764;2023-12-04T02:41:16;22.20;;;11.77;;
54919;SDS011;63804;53.120;8.764;2023-12-04T02:43:45;19.27;;;11.65;;
54919;SDS011;63804;53.120;8.764;2023-12-04T02:46:13;19.73;;;11.98;;
54919;SDS011;63804;53.120;8.764;2023-12-04T02:48:41;21.17;;;11.82;;
54919;SDS011;63804;53.120;8.764;2023-12-04T02:51:10;19.58;;;11.82;;
54919;SDS011;63804;53.120;8.764;2023-12-04T02:53:38;22.50;;;12.57;;
54919;SDS011;63804;53.120;8.764;2023-12-04T02:56:06;20.65;;;12.02;;
54919;SDS011;63804;53.120;8.764;2023-12-04T02:58:34;21.15;;;11.57;;
54919;SDS011;63804;53.120;8.764;2023-12-04T03:01:02;22.40;;;12.07;;
54919;SDS011;63804;53.120;8.764;2023-12-04T03:03:30;20.58;;;11.93;;
54919;SDS011;63804;53.120;8.764;2023-12-04T03:05:58;21.63;;;12.05;;
54919;SDS011;63804;53.120;8.764;2023-12-04T03:08:25;21.23;;;11.23;;
54919;SDS011;63804;53.120;8.764;2023-12-04T03:10:53;20.48;;;12.00;;
54919;SDS011;63804;53.120;8.764;2023-12-04T03:13:21;21.30;;;11.70;;
54919;SDS011;63804;53.120;8.764;2023-12-04T03:15:49;20.48;;;11.27;;
54919;SDS011;63804;53.120;8.764;2023-12-04T03:18:17;18.98;;;11.18;;
54919;SDS011;63804;53.120;8.764;2023-12-04T03:20:44;21.23;;;12.00;;
54919;SDS011;63804;53.120;8.764;2023-12-04T03:23:12;18.85;;;10.63;;
54919;SDS011;63804;53.120;8.764;2023-12-04T03:25:40;19.42;;;10.60;;
54919;SDS011;63804;53.120;8.764;2023-12-04T03:28:08;21.13;;;11.25;;
54919;SDS011;63804;53.120;8.764;2023-12-04T03:30:36;19.35;;;11.23;;
54919;SDS011;63804;53.120;8.764;2023-12-04T03:33:03;20.05;;;11.15;;
54919;SDS011;63804;53.120;8.764;2023-12-04T03:35:31;18.80;;;11.00;;
54919;SDS011;63804;53.120;8.764;2023-12-04T03:37:59;19.23;;;11.10;;
54919;SDS011;63804;53.120;8.764;2023-12-04T03:40:28;19.92;;;11.02;;
54919;SDS011;63804;53.120;8.764;2023-12-04T03:42:55;19.52;;;10.82;;
54919;SDS011;63804;53.120;8.764;2023-12-04T03:45:23;19.02;;;10.73;;
54919;SDS011;63804;53.120;8.764;2023-12-04T03:47:51;19.55;;;10.52;;
54919;SDS011;63804;53.120;8.764;2023-12-04T03:50:19;20.73;;;11.02;;
54919;SDS011;63804;53.120;8.764;2023-12-04T03:52:47;19.88;;;10.70;;
54919;SDS011;63804;53.120;8.764;2023-12-04T03:55:15;20.17;;;10.82;;
54919;SDS011;63804;53.120;8.764;2023-12-04T03:57:42;18.38;;;10.68;;
54919;SDS011;63804;53.120;8.764;2023-12-04T04:00:12;19.05;;;10.13;;
54919;SDS011;63804;53.120;8.764;2023-12-04T04:02:42;18.67;;;9.98;;
54919;SDS011;63804;53.120;8.764;2023-12-04T04:05:11;20.02;;;11.07;;
54919;SDS011;63804;53.120;8.764;2023-12-04T04:07:39;19.35;;;10.48;;
54919;SDS011;63804;53.120;8.764;2023-12-04T04:10:07;18.63;;;10.80;;
54919;SDS011;63804;53.120;8.764;2023-12-04T04:12:36;19.27;;;10.32;;
54919;SDS011;63804;53.120;8.764;2023-12-04T04:15:04;19.13;;;10.60;;
54919;SDS011;63804;53.120;8.764;2023-12-04T04:17:32;18.25;;;10.38;;
54919;SDS011;63804;53.120;8.764;2023-12-04T04:20:01;18.45;;;9.95;;
54919;SDS011;63804;53.120;8.764;2023-12-04T04:22:29;17.13;;;9.60;;
54919;SDS011;63804;53.120;8.764;2023-12-04T04:24:57;18.40;;;10.27;;
54919;SDS011;63804;53.120;8.764;2023-12-04T04:27:25;18.75;;;10.55;;
54919;SDS011;63804;53.120;8.764;2023-12-04T04:29:53;19.67;;;10.32;;
54919;SDS011;63804;53.120;8.764;2023-12-04T04:32:21;18.98;;;10.43;;
54919;SDS011;63804;53.120;8.764;2023-12-04T04:34:49;19.55;;;10.63;;
54919;SDS011;63804;53.120;8.764;2023-12-04T04:37:17;17.63;;;10.15;;
54919;SDS011;63804;53.120;8.764;2023-12-04T04:39:45;17.88;;;9.90;;
54919;SDS011;63804;53.120;8.764;2023-12-04T04:42:13;18.52;;;9.73;;
54919;SDS011;63804;53.120;8.764;2023-12-04T04:44:41;17.35;;;9.48;;
54919;SDS011;63804;53.120;8.764;2023-12-04T04:47:09;17.13;;;9.00;;
54919;SDS011;63804;53.120;8.764;2023-12-04T04:49:37;17.63;;;9.35;;
54919;SDS011;63804;53.120;8.764;2023-12-04T04:52:05;17.75;;;9.55;;
54919;SDS011;63804;53.120;8.764;2023-12-04T04:54:32;17.30;;;9.52;;
54919;SDS011;63804;53.120;8.764;2023-12-04T04:57:00;16.13;;;8.98;;
54919;SDS011;63804;53.120;8.764;2023-12-04T04:59:29;15.70;;;9.30;;
54919;SDS011;63804;53.120;8.764;2023-12-04T05:01:57;18.50;;;9.45;;
54919;SDS011;63804;53.120;8.764;2023-12-04T05:04:25;18.63;;;8.98;;
54919;SDS011;63804;53.120;8.764;2023-12-04T05:06:54;16.27;;;9.00;;
54919;SDS011;63804;53.120;8.764;2023-12-04T05:09:21;16.25;;;9.00;;
54919;SDS011;63804;53.120;8.764;2023-12-04T05:11:49;17.02;;;9.00;;
54919;SDS011;63804;53.120;8.764;2023-12-04T05:14:20;15.23;;;8.35;;
54919;SDS011;63804;53.120;8.764;2023-12-04T05:16:47;17.35;;;9.38;;
54919;SDS011;63804;53.120;8.764;2023-12-04T05:19:15;16.00;;;8.52;;
54919;SDS011;63804;53.120;8.764;2023-12-04T05:21:43;19.15;;;9.27;;
54919;SDS011;63804;53.120;8.764;2023-12-04T05:24:11;16.08;;;8.73;;
54919;SDS011;63804;53.120;8.764;2023-12-04T05:26:39;15.93;;;8.75;;
54919;SDS011;63804;53.120;8.764;2023-12-04T05:29:06;17.63;;;9.65;;
54919;SDS011;63804;53.120;8.764;2023-12-04T05:31:34;14.88;;;8.13;;
54919;SDS011;63804;53.120;8.764;2023-12-04T05:34:02;15.30;;;8.57;;
54919;SDS011;63804;53.120;8.764;2023-12-04T05:36:30;16.85;;;8.95;;
54919;SDS011;63804;53.120;8.764;2023-12-04T05:38:58;17.00;;;9.30;;
54919;SDS011;63804;53.120;8.764;2023-12-04T05:41:32;16.45;;;8.48;;
54919;SDS011;63804;53.120;8.764;2023-12-04T05:43:59;16.23;;;8.80;;
54919;SDS011;63804;53.120;8.764;2023-12-04T05:46:28;16.77;;;9.25;;
54919;SDS011;63804;53.120;8.764;2023-12-04T05:48:56;17.27;;;8.85;;
54919;SDS011;63804;53.120;8.764;2023-12-04T05:51:23;16.55;;;9.10;;
54919;SDS011;63804;53.120;8.764;2023-12-04T05:53:51;15.60;;;8.57;;
54919;SDS011;63804;53.120;8.764;2023-12-04T05:56:19;16.63;;;8.80;;
54919;SDS011;63804;53.120;8.764;2023-12-04T05:58:47;16.80;;;8.55;;
54919;SDS011;63804;53.120;8.764;2023-12-04T06:01:15;17.50;;;8.90;;
54919;SDS011;63804;53.120;8.764;2023-12-04T06:03:43;15.23;;;8.68;;
54919;SDS011;63804;53.120;8.764;2023-12-04T06:06:10;19.65;;;8.98;;
54919;SDS011;63804;53.120;8.764;2023-12-04T06:08:38;16.67;;;8.88;;
54919;SDS011;63804;53.120;8.764;2023-12-04T06:11:06;16.48;;;9.07;;
54919;SDS011;63804;53.120;8.764;2023-12-04T06:13:34;14.85;;;8.70;;
54919;SDS011;63804;53.120;8.764;2023-12-04T06:16:02;15.60;;;9.05;;
54919;SDS011;63804;53.120;8.764;2023-12-04T06:18:30;15.52;;;8.68;;
54919;SDS011;63804;53.120;8.764;2023-12-04T06:20:58;16.27;;;8.85;;
54919;SDS011;63804;53.120;8.764;2023-12-04T06:23:25;19.63;;;9.20;;
54919;SDS011;63804;53.120;8.764;2023-12-04T06:25:53;18.58;;;9.75;;
54919;SDS011;63804;53.120;8.764;2023-12-04T06:28:22;18.50;;;8.50;;
54919;SDS011;63804;53.120;8.764;2023-12-04T06:30:50;17.50;;;9.43;;
54919;SDS011;63804;53.120;8.764;2023-12-04T06:33:20;15.65;;;8.45;;
54919;SDS011;63804;53.120;8.764;2023-12-04T06:35:48;16.52;;;8.93;;
54919;SDS011;63804;53.120;8.764;2023-12-04T06:38:16;16.13;;;9.48;;
54919;SDS011;63804;53.120;8.764;2023-12-04T06:40:46;17.75;;;9.65;;
54919;SDS011;63804;53.120;8.764;2023-12-04T06:43:14;16.13;;;8.95;;
54919;SDS011;63804;53.120;8.764;2023-12-04T06:45:46;16.08;;;9.13;;
54919;SDS011;63804;53.120;8.764;2023-12-04T06:48:14;17.00;;;9.07;;
54919;SDS011;63804;53.120;8.764;2023-12-04T06:50:43;17.30;;;9.35;;
54919;SDS011;63804;53.120;8.764;2023-12-04T06:53:11;16.10;;;9.38;;
54919;SDS011;63804;53.120;8.764;2023-12-04T06:55:39;17.20;;;9.77;;
54919;SDS011;63804;53.120;8.764;2023-12-04T06:58:06;18.45;;;9.57;;
54919;SDS011;63804;53.120;8.764;2023-12-04T07:00:34;16.98;;;9.50;;
54919;SDS011;63804;53.120;8.764;2023-12-04T07:03:02;15.63;;;8.90;;
54919;SDS011;63804;53.120;8.764;2023-12-04T07:05:30;17.52;;;9.18;;
54919;SDS011;63804;53.120;8.764;2023-12-04T07:07:58;17.33;;;9.48;;
54919;SDS011;63804;53.120;8.764;2023-12-04T07:10:25;16.77;;;8.73;;
54919;SDS011;63804;53.120;8.764;2023-12-04T07:12:54;16.80;;;9.23;;
54919;SDS011;63804;53.120;8.764;2023-12-04T07:15:22;16.10;;;8.45;;
54919;SDS011;63804;53.120;8.764;2023-12-04T07:17:50;16.85;;;9.18;;
54919;SDS011;63804;53.120;8.764;2023-12-04T07:20:19;17.50;;;9.35;;
54919;SDS011;63804;53.120;8.764;2023-12-04T07:22:47;16.73;;;8.88;;
54919;SDS011;63804;53.120;8.764;2023-12-04T07:25:14;17.85;;;9.48;;
54919;SDS011;63804;53.120;8.764;2023-12-04T07:27:44;16.45;;;9.13;;
54919;SDS011;63804;53.120;8.764;2023-12-04T07:30:12;16.23;;;8.90;;
54919;SDS011;63804;53.120;8.764;2023-12-04T07:32:43;17.48;;;9.43;;
54919;SDS011;63804;53.120;8.764;2023-12-04T07:35:11;29.10;;;16.50;;
54919;SDS011;63804;53.120;8.764;2023-12-04T07:37:39;20.35;;;11.82;;
54919;SDS011;63804;53.120;8.764;2023-12-04T07:40:07;21.75;;;12.85;;
54919;SDS011;63804;53.120;8.764;2023-12-04T07:42:36;22.60;;;11.25;;
54919;SDS011;63804;53.120;8.764;2023-12-04T07:45:05;21.92;;;11.45;;
54919;SDS011;63804;53.120;8.764;2023-12-04T07:47:33;19.05;;;11.27;;
54919;SDS011;63804;53.120;8.764;2023-12-04T07:50:01;28.27;;;17.77;;
54919;SDS011;63804;53.120;8.764;2023-12-04T07:52:29;28.75;;;18.15;;
54919;SDS011;63804;53.120;8.764;2023-12-04T07:54:58;26.17;;;17.08;;
54919;SDS011;63804;53.120;8.764;2023-12-04T07:57:25;26.45;;;17.80;;
54919;SDS011;63804;53.120;8.764;2023-12-04T07:59:53;29.67;;;20.10;;
54919;SDS011;63804;53.120;8.764;2023-12-04T08:02:21;20.95;;;11.98;;
54919;SDS011;63804;53.120;8.764;2023-12-04T08:04:49;41.67;;;25.38;;
54919;SDS011;63804;53.120;8.764;2023-12-04T08:07:17;64.70;;;46.63;;
54919;SDS011;63804;53.120;8.764;2023-12-04T08:09:44;24.70;;;14.43;;
54919;SDS011;63804;53.120;8.764;2023-12-04T08:12:12;19.13;;;11.73;;
54919;SDS011;63804;53.120;8.764;2023-12-04T08:14:40;17.08;;;10.25;;
54919;SDS011;63804;53.120;8.764;2023-12-04T08:17:08;18.58;;;10.40;;
54919;SDS011;63804;53.120;8.764;2023-12-04T08:19:36;18.45;;;10.82;;
54919;SDS011;63804;53.120;8.764;2023-12-04T08:22:05;18.17;;;10.65;;
54919;SDS011;63804;53.120;8.764;2023-12-04T08:24:33;18.85;;;10.13;;
54919;SDS011;63804;53.120;8.764;2023-12-04T08:27:01;17.15;;;10.18;;
54919;SDS011;63804;53.120;8.764;2023-12-04T08:29:29;20.52;;;10.27;;
54919;SDS011;63804;53.120;8.764;2023-12-04T08:31:57;17.08;;;9.85;;
54919;SDS011;63804;53.120;8.764;2023-12-04T08:34:25;18.27;;;9.60;;
54919;SDS011;63804;53.120;8.764;2023-12-04T08:36:52;17.35;;;9.60;;
54919;SDS011;63804;53.120;8.764;2023-12-04T08:39:20;18.92;;;9.90;;
54919;SDS011;63804;53.120;8.764;2023-12-04T08:41:49;16.92;;;9.20;;
54919;SDS011;63804;53.120;8.764;2023-12-04T08:44:29;18.92;;;9.07;;
54919;SDS011;63804;53.120;8.764;2023-12-04T08:46:57;17.27;;;9.75;;
54919;SDS011;63804;53.120;8.764;2023-12-04T08:49:25;16.92;;;9.07;;
54919;SDS011;63804;53.120;8.764;2023-12-04T08:52:06;17.33;;;9.05;;
54919;SDS011;63804;53.120;8.764;2023-12-04T08:54:34;17.48;;;9.48;;
54919;SDS011;63804;53.120;8.764;2023-12-04T08:57:02;17.45;;;9.05;;
54919;SDS011;63804;53.120;8.764;2023-12-04T08:59:33;18.13;;;9.32;;
54919;SDS011;63804;53.120;8.764;2023-12-04T09:02:01;16.83;;;9.52;;
54919;SDS011;63804;53.120;8.764;2023-12-04T09:04:32;19.65;;;10.13;;
54919;SDS011;63804;53.120;8.764;2023-12-04T09:07:01;18.00;;;9.55;;
54919;SDS011;63804;53.120;8.764;2023-12-04T09:09:48;15.98;;;9.32;;
54919;SDS011;63804;53.120;8.764;2023-12-04T09:12:17;15.30;;;8.52;;
54919;SDS011;63804;53.120;8.764;2023-12-04T09:14:45;16.85;;;9.60;;
54919;SDS011;63804;53.120;8.764;2023-12-04T09:17:13;16.63;;;8.90;;
54919;SDS011;63804;53.120;8.764;2023-12-04T09:19:43;16.10;;;8.82;;
54919;SDS011;63804;53.120;8.764;2023-12-04T09:22:12;15.65;;;8.60;;
54919;SDS011;63804;53.120;8.764;2023-12-04T09:24:47;15.85;;;9.57;;
54919;SDS011;63804;53.120;8.764;2023-12-04T09:27:15;16.65;;;9.38;;
54919;SDS011;63804;53.120;8.764;2023-12-04T09:29:44;16.83;;;9.60;;
54919;SDS011;63804;53.120;8.764;2023-12-04T09:32:12;15.52;;;8.45;;
54919;SDS011;63804;53.120;8.764;2023-12-04T09:34:40;16.90;;;8.98;;
54919;SDS011;63804;53.120;8.764;2023-12-04T09:37:08;17.27;;;9.07;;
54919;SDS011;63804;53.120;8.764;2023-12-04T09:39:38;16.88;;;8.82;;
54919;SDS011;63804;53.120;8.764;2023-12-04T09:42:07;16.23;;;8.05;;
54919;SDS011;63804;53.120;8.764;2023-12-04T09:44:36;15.48;;;8.43;;
54919;SDS011;63804;53.120;8.764;2023-12-04T09:47:04;15.18;;;8.48;;
54919;SDS011;63804;53.120;8.764;2023-12-04T09:49:32;15.50;;;8.68;;
54919;SDS011;63804;53.120;8.764;2023-12-04T09:52:01;17.65;;;9.07;;
54919;SDS011;63804;53.120;8.764;2023-12-04T09:54:32;15.60;;;8.85;;
54919;SDS011;63804;53.120;8.764;2023-12-04T09:57:03;15.73;;;8.77;;
54919;SDS011;63804;53.120;8.764;2023-12-04T09:59:33;16.88;;;9.23;;
54919;SDS011;63804;53.120;8.764;2023-12-04T10:02:04;15.15;;;8.80;;
54919;SDS011;63804;53.120;8.764;2023-12-04T10:04:32;16.35;;;8.95;;
54919;SDS011;63804;53.120;8.764;2023-12-04T10:07:01;15.98;;;8.90;;
54919;SDS011;63804;53.120;8.764;2023-12-04T10:09:30;16.20;;;8.60;;
54919;SDS011;63804;53.120;8.764;2023-12-04T10:11:58;16.20;;;8.90;;
54919;SDS011;63804;53.120;8.764;2023-12-04T10:14:27;15.82;;;8.57;;
54919;SDS011;63804;53.120;8.764;2023-12-04T10:16:55;16.85;;;8.95;;
54919;SDS011;63804;53.120;8.764;2023-12-04T10:19:24;15.65;;;8.70;;
54919;SDS011;63804;53.120;8.764;2023-12-04T10:21:57;15.53;;;8.73;;
54919;SDS011;63804;53.120;8.764;2023-12-04T10:24:29;18.00;;;9.70;;
54919;SDS011;63804;53.120;8.764;2023-12-04T10:26:59;15.93;;;8.65;;
54919;SDS011;63804;53.120;8.764;2023-12-04T10:29:29;16.42;;;8.45;;
54919;SDS011;63804;53.120;8.764;2023-12-04T10:32:09;17.15;;;9.40;;
54919;SDS011;63804;53.120;8.764;2023-12-04T10:34:38;15.68;;;8.23;;
54919;SDS011;63804;53.120;8.764;2023-12-04T10:37:06;16.23;;;8.68;;
54919;SDS011;63804;53.120;8.764;2023-12-04T10:39:45;14.38;;;8.18;;
54919;SDS011;63804;53.120;8.764;2023-12-04T10:42:32;16.23;;;8.65;;
54919;SDS011;63804;53.120;8.764;2023-12-04T10:45:01;16.23;;;8.80;;
54919;SDS011;63804;53.120;8.764;2023-12-04T10:47:29;15.77;;;8.00;;
54919;SDS011;63804;53.120;8.764;2023-12-04T10:50:00;15.70;;;8.07;;
54919;SDS011;63804;53.120;8.764;2023-12-04T10:52:30;15.27;;;8.02;;
54919;SDS011;63804;53.120;8.764;2023-12-04T10:54:59;15.93;;;8.35;;
54919;SDS011;63804;53.120;8.764;2023-12-04T10:57:35;18.55;;;8.25;;
54919;SDS011;63804;53.120;8.764;2023-12-04T11:00:06;15.07;;;8.18;;
54919;SDS011;63804;53.120;8.764;2023-12-04T11:02:36;15.35;;;7.88;;
54919;SDS011;63804;53.120;8.764;2023-12-04T11:05:15;15.18;;;8.27;;
54919;SDS011;63804;53.120;8.764;2023-12-04T11:07:58;42.08;;;20.55;;
54919;SDS011;63804;53.120;8.764;2023-12-04T11:13:17;16.75;;;10.68;;
54919;SDS011;63804;53.120;8.764;2023-12-04T11:15:48;19.40;;;11.10;;
54919;SDS011;63804;53.120;8.764;2023-12-04T11:18:20;17.58;;;11.20;;
54919;SDS011;63804;53.120;8.764;2023-12-04T11:20:51;17.38;;;8.75;;
54919;SDS011;63804;53.120;8.764;2023-12-04T11:23:24;13.70;;;7.28;;
54919;SDS011;63804;53.120;8.764;2023-12-04T11:25:52;15.60;;;8.10;;
54919;SDS011;63804;53.120;8.764;2023-12-04T11:28:21;14.75;;;8.30;;
54919;SDS011;63804;53.120;8.764;2023-12-04T11:30:49;13.95;;;8.18;;
54919;SDS011;63804;53.120;8.764;2023-12-04T11:33:18;14.63;;;8.15;;
54919;SDS011;63804;53.120;8.764;2023-12-04T11:35:46;15.05;;;8.52;;
54919;SDS011;63804;53.120;8.764;2023-12-04T11:38:14;15.73;;;8.90;;
54919;SDS011;63804;53.120;8.764;2023-12-04T11:40:42;15.57;;;8.93;;
54919;SDS011;63804;53.120;8.764;2023-12-04T11:43:27;14.63;;;7.93;;
54919;SDS011;63804;53.120;8.764;2023-12-04T11:46:09;15.10;;;8.07;;
54919;SDS011;63804;53.120;8.764;2023-12-04T11:48:37;14.35;;;8.85;;
54919;SDS011;63804;53.120;8.764;2023-12-04T11:51:06;15.75;;;8.95;;
54919;SDS011;63804;53.120;8.764;2023-12-04T11:53:38;15.27;;;9.35;;
54919;SDS011;63804;53.120;8.764;2023-12-04T11:56:11;14.93;;;8.38;;
54919;SDS011;63804;53.120;8.764;2023-12-04T11:58:43;15.68;;;9.45;;
54919;SDS011;63804;53.120;8.764;2023-12-04T12:01:11;14.48;;;9.57;;
54919;SDS011;63804;53.120;8.764;2023-12-04T12:03:39;14.10;;;8.13;;
54919;SDS011;63804;53.120;8.764;2023-12-04T12:06:07;13.55;;;8.00;;
54919;SDS011;63804;53.120;8.764;2023-12-04T12:08:36;14.85;;;8.70;;
54919;SDS011;63804;53.120;8.764;2023-12-04T12:11:04;15.18;;;8.57;;
54919;SDS011;63804;53.120;8.764;2023-12-04T12:13:33;14.23;;;8.90;;
54919;SDS011;63804;53.120;8.764;2023-12-04T12:16:01;18.02;;;10.48;;
54919;SDS011;63804;53.120;8.764;2023-12-04T12:19:01;16.48;;;9.43;;
54919;SDS011;63804;53.120;8.764;2023-12-04T12:21:30;17.30;;;11.25;;
54919;SDS011;63804;53.120;8.764;2023-12-04T12:23:58;15.18;;;8.48;;
54919;SDS011;63804;53.120;8.764;2023-12-04T12:26:26;17.52;;;8.98;;
54919;SDS011;63804;53.120;8.764;2023-12-04T12:28:55;17.20;;;9.48;;
54919;SDS011;63804;53.120;8.764;2023-12-04T12:31:23;14.00;;;8.48;;
54919;SDS011;63804;53.120;8.764;2023-12-04T12:33:51;15.80;;;9.32;;
54919;SDS011;63804;53.120;8.764;2023-12-04T12:36:20;15.82;;;9.18;;
54919;SDS011;63804;53.120;8.764;2023-12-04T12:38:49;13.68;;;7.80;;
54919;SDS011;63804;53.120;8.764;2023-12-04T12:41:17;15.15;;;8.88;;
54919;SDS011;63804;53.120;8.764;2023-12-04T12:43:45;15.07;;;8.27;;
54919;SDS011;63804;53.120;8.764;2023-12-04T12:46:14;15.60;;;8.07;;
54919;SDS011;63804;53.120;8.764;2023-12-04T12:48:43;14.70;;;8.27;;
54919;SDS011;63804;53.120;8.764;2023-12-04T12:51:12;15.77;;;8.70;;
54919;SDS011;63804;53.120;8.764;2023-12-04T12:53:40;14.38;;;8.60;;
54919;SDS011;63804;53.120;8.764;2023-12-04T12:56:12;15.98;;;9.38;;
54919;SDS011;63804;53.120;8.764;2023-12-04T12:58:41;14.18;;;8.75;;
54919;SDS011;63804;53.120;8.764;2023-12-04T13:01:12;16.02;;;8.20;;
54919;SDS011;63804;53.120;8.764;2023-12-04T13:03:40;16.20;;;9.13;;
54919;SDS011;63804;53.120;8.764;2023-12-04T13:06:08;17.13;;;10.23;;
54919;SDS011;63804;53.120;8.764;2023-12-04T13:08:36;16.30;;;9.57;;
54919;SDS011;63804;53.120;8.764;2023-12-04T13:11:04;16.90;;;10.40;;
54919;SDS011;63804;53.120;8.764;2023-12-04T13:13:32;19.05;;;12.35;;
54919;SDS011;63804;53.120;8.764;2023-12-04T13:16:00;15.88;;;9.77;;
54919;SDS011;63804;53.120;8.764;2023-12-04T13:18:28;18.25;;;9.40;;
54919;SDS011;63804;53.120;8.764;2023-12-04T13:20:59;14.63;;;9.25;;
54919;SDS011;63804;53.120;8.764;2023-12-04T13:23:27;14.75;;;7.88;;
54919;SDS011;63804;53.120;8.764;2023-12-04T13:25:55;15.38;;;8.02;;
54919;SDS011;63804;53.120;8.764;2023-12-04T13:28:23;15.73;;;7.97;;
54919;SDS011;63804;53.120;8.764;2023-12-04T13:31:03;15.20;;;8.45;;
54919;SDS011;63804;53.120;8.764;2023-12-04T13:33:32;15.95;;;8.32;;
54919;SDS011;63804;53.120;8.764;2023-12-04T13:36:00;14.68;;;7.68;;
54919;SDS011;63804;53.120;8.764;2023-12-04T13:38:28;16.05;;;8.48;;
54919;SDS011;63804;53.120;8.764;2023-12-04T13:41:04;14.93;;;8.57;;
54919;SDS011;63804;53.120;8.764;2023-12-04T13:43:58;18.55;;;10.57;;
54919;SDS011;63804;53.120;8.764;2023-12-04T13:46:28;20.73;;;13.07;;
54919;SDS011;63804;53.120;8.764;2023-12-04T13:48:57;44.83;;;26.13;;
54919;SDS011;63804;53.120;8.764;2023-12-04T13:51:25;41.88;;;25.35;;
54919;SDS011;63804;53.120;8.764;2023-12-04T13:53:54;33.40;;;21.23;;
54919;SDS011;63804;53.120;8.764;2023-12-04T13:56:29;22.10;;;13.30;;
54919;SDS011;63804;53.120;8.764;2023-12-04T13:59:14;18.65;;;12.23;;
54919;SDS011;63804;53.120;8.764;2023-12-04T14:01:48;18.08;;;9.98;;
54919;SDS011;63804;53.120;8.764;2023-12-04T14:04:23;14.88;;;8.93;;
54919;SDS011;63804;53.120;8.764;2023-12-04T14:06:53;13.90;;;7.68;;
54919;SDS011;63804;53.120;8.764;2023-12-04T14:09:21;14.80;;;8.57;;
54919;SDS011;63804;53.120;8.764;2023-12-04T14:11:49;14.32;;;8.40;;
54919;SDS011;63804;53.120;8.764;2023-12-04T14:14:17;18.05;;;10.43;;
54919;SDS011;63804;53.120;8.764;2023-12-04T14:16:45;14.75;;;8.50;;
54919;SDS011;63804;53.120;8.764;2023-12-04T14:19:14;15.45;;;9.60;;
54919;SDS011;63804;53.120;8.764;2023-12-04T14:21:44;14.05;;;8.05;;
54919;SDS011;63804;53.120;8.764;2023-12-04T14:24:12;12.55;;;7.00;;
54919;SDS011;63804;53.120;8.764;2023-12-04T14:26:43;12.82;;;6.88;;
54919;SDS011;63804;53.120;8.764;2023-12-04T14:29:11;13.45;;;7.22;;
54919;SDS011;63804;53.120;8.764;2023-12-04T14:31:41;13.90;;;7.45;;
54919;SDS011;63804;53.120;8.764;2023-12-04T14:34:08;12.85;;;6.82;;
54919;SDS011;63804;53.120;8.764;2023-12-04T14:36:37;13.23;;;7.45;;
54919;SDS011;63804;53.120;8.764;2023-12-04T14:39:07;11.75;;;6.75;;
54919;SDS011;63804;53.120;8.764;2023-12-04T14:41:38;12.10;;;6.75;;